Time;durP1;ratioP1;P1;durP2;ratioP2;P2;SDS_P1;SDS_P2;PMS_P1;PMS_P2;Temp;Humidity;BMP_temperature;BMP_pressure;BME280_temperature;BME280_humidity;BME280_pressure;Samples;Min_cycle;Max_cycle;Signal;HPM_P1;HPM_P2
2022/11/06 00:01:15;;;;;;;9.70;3.92;;;24.00;99.90;;;;;;5074713;28;20049;-46
2022/11/06 00:03:42;;;;;;;6.78;2.40;;;23.80;99.90;;;;;;5074826;28;20121;-46
2022/11/06 00:08:55;;;;;;;8.27;3.65;;;23.60;99.90;;;;;;5074770;28;20028;-46
2022/11/06 00:11:21;;;;;;;7.03;2.90;;;23.50;99.90;;;;;;5074789;28;20035;-49
2022/11/06 00:13:47;;;;;;;5.53;2.22;;;23.30;99.90;;;;;;5053667;28;20108;-47
2022/11/06 00:16:13;;;;;;;8.27;3.05;;;23.30;99.90;;;;;;5040690;28;20056;-46
2022/11/06 00:18:40;;;;;;;9.23;3.28;;;23.20;99.90;;;;;;5074762;28;20020;-46
2022/11/06 00:21:21;;;;;;;5.50;3.30;;;23.10;99.90;;;;;;5074799;28;20021;-45
2022/11/06 00:23:47;;;;;;;10.55;3.42;;;23.10;99.90;;;;;;5074401;28;20431;-45
2022/11/06 00:26:17;;;;;;;5.95;2.45;;;23.00;99.90;;;;;;5073262;28;20040;-46
2022/11/06 00:28:43;;;;;;;10.82;4.03;;;22.90;99.90;;;;;;5056594;28;20024;-45
2022/11/06 00:31:12;;;;;;;6.03;2.95;;;22.90;99.90;;;;;;5074167;28;20488;-46
2022/11/06 00:33:38;;;;;;;6.30;3.00;;;22.80;99.90;;;;;;5056313;28;20358;-47
2022/11/06 00:36:12;;;;;;;5.55;2.55;;;22.80;99.90;;;;;;5061203;28;20079;-46
2022/11/06 00:38:38;;;;;;;6.70;2.60;;;22.80;99.90;;;;;;5054003;28;20025;-46
2022/11/06 00:41:06;;;;;;;7.07;2.55;;;22.70;99.90;;;;;;5042340;28;20097;-45
2022/11/06 00:43:32;;;;;;;;;;;22.70;99.90;;;;;;5065911;28;20056;-44
2022/11/06 00:46:06;;;;;;;5.80;1.80;;;22.70;99.90;;;;;;5073790;28;19923;-45
2022/11/06 00:48:33;;;;;;;8.20;2.63;;;22.70;99.90;;;;;;5042699;28;20104;-45
2022/11/06 00:51:14;;;;;;;3.85;2.30;;;22.70;99.90;;;;;;5072399;28;20033;-45
2022/11/06 00:53:41;;;;;;;8.20;2.00;;;22.60;99.90;;;;;;5041081;28;20036;-46
2022/11/06 00:56:09;;;;;;;7.57;2.07;;;22.60;99.90;;;;;;5074150;28;20082;-46
2022/11/06 00:58:36;;;;;;;6.03;2.17;;;22.60;99.90;;;;;;5055984;28;20111;-46
2022/11/06 01:01:13;;;;;;;9.75;2.30;;;22.60;99.90;;;;;;5093531;22;20048;-53
2022/11/06 01:03:40;;;;;;;5.20;2.00;;;22.60;99.90;;;;;;5093202;28;20043;-53
2022/11/06 01:06:08;;;;;;;6.03;2.00;;;22.60;99.90;;;;;;5094115;28;20067;-52
2022/11/06 01:08:35;;;;;;;7.30;2.45;;;22.50;99.90;;;;;;5076077;28;20044;-53
2022/11/06 01:11:06;;;;;;;6.00;2.38;;;22.50;99.90;;;;;;5071421;28;20039;-53
2022/11/06 01:13:32;;;;;;;5.20;2.10;;;22.40;99.90;;;;;;5069822;28;20016;-52
2022/11/06 01:15:58;;;;;;;5.47;2.42;;;22.40;99.90;;;;;;5070583;28;20046;-51
2022/11/06 01:18:23;;;;;;;5.90;2.00;;;22.40;99.90;;;;;;5067634;28;20016;-52
2022/11/06 01:20:49;;;;;;;5.40;2.40;;;22.30;99.90;;;;;;5093685;28;20020;-52
2022/11/06 01:23:15;;;;;;;5.53;1.92;;;22.30;99.90;;;;;;5093349;28;20127;-53
2022/11/06 01:25:40;;;;;;;3.47;1.70;;;22.30;99.90;;;;;;5093562;28;20027;-53
2022/11/06 01:28:06;;;;;;;6.20;1.80;;;22.20;99.90;;;;;;5076562;28;20094;-54
2022/11/06 01:30:36;;;;;;;2.85;1.70;;;22.20;99.90;;;;;;5068559;28;20472;-49
2022/11/06 01:33:01;;;;;;;147.82;26.58;;;22.20;99.90;;;;;;5074115;28;20078;-53
2022/11/06 01:35:27;;;;;;;29.92;6.80;;;22.20;99.90;;;;;;5077919;28;20495;-52
2022/11/06 01:37:53;;;;;;;19.85;4.45;;;22.40;99.90;;;;;;5082368;28;20028;-53
2022/11/06 01:40:18;;;;;;;15.23;3.28;;;22.50;99.90;;;;;;5074538;28;20021;-52
2022/11/06 01:42:44;;;;;;;10.05;3.35;;;22.70;99.90;;;;;;5093527;28;20019;-53
2022/11/06 01:45:28;;;;;;;15.15;3.10;;;22.90;99.90;;;;;;5093317;28;20028;-53
2022/11/06 01:47:54;;;;;;;12.60;3.10;;;23.10;99.90;;;;;;5066159;28;20029;-52
2022/11/06 01:50:21;;;;;;;8.73;2.92;;;23.20;99.90;;;;;;5064383;28;20017;-50
2022/11/06 01:52:49;;;;;;;13.23;3.72;;;23.40;99.90;;;;;;5075359;28;20483;-52
2022/11/06 01:55:29;;;;;;;11.77;2.65;;;23.50;99.90;;;;;;5092990;28;20016;-52
2022/11/06 01:57:56;;;;;;;12.02;2.47;;;23.60;99.90;;;;;;5090179;28;20024;-52
2022/11/06 02:00:22;;;;;;;10.48;3.20;;;23.70;99.90;;;;;;5044834;28;20489;-52
2022/11/06 02:02:49;;;;;;;7.80;2.63;;;23.80;99.90;;;;;;5092676;28;20058;-52
2022/11/06 02:05:16;;;;;;;8.77;2.58;;;23.90;99.90;;;;;;5081862;28;20029;-52
2022/11/06 02:07:43;;;;;;;7.50;2.73;;;24.00;99.90;;;;;;5059884;28;20106;-52
2022/11/06 02:10:09;;;;;;;9.50;3.63;;;24.00;99.90;;;;;;5076993;28;20475;-52
2022/11/06 02:12:43;;;;;;;6.75;2.60;;;24.10;99.90;;;;;;5049339;28;20377;-52
2022/11/06 02:15:33;;;;;;;8.25;3.13;;;24.20;99.90;;;;;;5066686;28;20376;-53
2022/11/06 02:18:32;;;;;;;5.47;2.63;;;24.20;99.90;;;;;;5092955;28;20023;-52
2022/11/06 02:21:16;;;;;;;8.52;2.55;;;24.30;99.90;;;;;;5065162;28;20025;-53
2022/11/06 02:24:20;;;;;;;14.13;3.42;;;24.30;99.90;;;;;;5066957;28;20021;-52
2022/11/06 02:27:09;;;;;;;9.10;2.55;;;24.30;99.90;;;;;;5055722;28;20033;-53
2022/11/06 02:29:41;;;;;;;6.85;3.03;;;24.40;99.90;;;;;;5064620;28;20107;-53
2022/11/06 02:32:12;;;;;;;5.97;2.38;;;24.40;99.90;;;;;;5083966;28;20040;-53
2022/11/06 02:34:40;;;;;;;4.05;2.22;;;24.40;99.90;;;;;;5072719;28;20028;-53
2022/11/06 02:37:19;;;;;;;6.60;2.60;;;24.40;99.90;;;;;;5089033;28;20020;-52
2022/11/06 02:39:47;;;;;;;6.78;2.60;;;24.50;99.90;;;;;;5073473;28;20024;-53
2022/11/06 02:42:17;;;;;;;5.50;2.58;;;24.50;99.90;;;;;;5092635;28;20017;-53
2022/11/06 02:44:45;;;;;;;5.97;2.65;;;24.50;99.90;;;;;;5085394;28;20081;-53
2022/11/06 02:47:13;;;;;;;7.90;2.42;;;24.50;99.90;;;;;;5065658;28;20475;-53
2022/11/06 02:49:50;;;;;;;5.72;2.60;;;24.50;99.90;;;;;;5071464;28;20024;-53
2022/11/06 02:52:25;;;;;;;6.55;2.42;;;24.50;99.90;;;;;;5071874;28;20052;-53
2022/11/06 02:54:57;;;;;;;6.13;2.78;;;24.50;99.90;;;;;;5071211;28;20021;-53
2022/11/06 02:57:25;;;;;;;6.00;2.72;;;24.50;99.90;;;;;;5086977;28;20024;-53
2022/11/06 03:00:10;;;;;;;4.78;2.60;;;24.50;99.90;;;;;;5081283;28;20112;-53
2022/11/06 03:02:41;;;;;;;11.00;3.00;;;24.50;99.90;;;;;;5087058;28;20384;-53
2022/11/06 03:05:28;;;;;;;5.43;3.55;;;24.50;99.90;;;;;;5067402;28;20369;-53
2022/11/06 03:08:16;;;;;;;4.55;3.00;;;24.50;99.90;;;;;;5070998;28;20071;-53
2022/11/06 03:11:16;;;;;;;8.93;3.50;;;24.50;99.90;;;;;;5072510;28;20468;-53
2022/11/06 03:14:00;;;;;;;7.32;3.08;;;24.50;99.90;;;;;;5084857;28;20028;-53
2022/11/06 03:16:34;;;;;;;8.00;2.70;;;24.50;99.90;;;;;;5091670;28;20048;-52
2022/11/06 03:19:27;;;;;;;8.10;3.40;;;24.60;99.90;;;;;;5090905;28;20118;-52
2022/11/06 03:22:18;;;;;;;5.82;2.80;;;24.50;99.90;;;;;;5090292;28;20016;-52
2022/11/06 03:25:08;;;;;;;6.13;3.20;;;24.50;99.90;;;;;;5092510;28;20026;-51
2022/11/06 03:28:00;;;;;;;9.05;3.78;;;24.60;99.90;;;;;;5094783;28;20043;-52
2022/11/06 03:30:25;;;;;;;8.77;3.72;;;24.60;99.90;;;;;;5082620;28;20043;-52
2022/11/06 03:33:19;;;;;;;7.20;3.63;;;24.50;99.90;;;;;;5096229;28;20020;-52
2022/11/06 03:35:49;;;;;;;6.57;3.97;;;24.50;99.90;;;;;;5096104;28;20086;-51
2022/11/06 03:38:59;;;;;;;6.93;3.78;;;24.50;99.90;;;;;;5095863;28;20034;-52
2022/11/06 03:41:37;;;;;;;8.38;4.00;;;24.60;99.90;;;;;;5070076;28;20028;-52
2022/11/06 03:44:05;;;;;;;7.75;3.97;;;24.50;99.90;;;;;;5095891;28;20073;-52
2022/11/06 03:46:36;;;;;;;6.43;3.72;;;24.50;99.90;;;;;;5095855;28;20055;-52
2022/11/06 03:49:06;;;;;;;9.80;4.03;;;24.60;99.90;;;;;;5095953;28;20130;-52
2022/11/06 03:51:36;;;;;;;7.30;3.50;;;24.50;99.90;;;;;;5095693;28;20200;-52
2022/11/06 03:54:08;;;;;;;9.27;3.92;;;24.50;99.90;;;;;;5095746;28;20020;-52
2022/11/06 03:56:53;;;;;;;6.30;3.80;;;24.50;99.90;;;;;;5095683;28;20024;-52
2022/11/06 03:59:22;;;;;;;5.38;3.58;;;24.50;99.90;;;;;;5107663;22;20050;-45
2022/11/06 04:01:52;;;;;;;6.57;3.50;;;24.50;99.90;;;;;;5036731;28;20045;-45
2022/11/06 04:04:25;;;;;;;5.97;3.63;;;24.50;99.90;;;;;;5055251;28;20029;-45
2022/11/06 04:07:00;;;;;;;7.18;3.80;;;24.50;99.90;;;;;;5055289;28;20037;-45
2022/11/06 04:15:05;;;;;;;6.88;3.83;;;24.50;99.90;;;;;;5055240;28;20438;-45
2022/11/06 04:17:32;;;;;;;7.68;4.47;;;24.50;99.90;;;;;;5037236;28;20033;-45
2022/11/06 04:20:02;;;;;;;5.57;3.50;;;24.50;99.90;;;;;;5055280;28;20028;-44
2022/11/06 04:22:54;;;;;;;5.90;3.55;;;24.50;99.90;;;;;;5037132;28;20200;-45
2022/11/06 04:29:01;;;;;;;5.13;3.50;;;24.50;99.90;;;;;;5039881;28;20040;-45
2022/11/06 04:31:39;;;;;;;5.60;3.72;;;24.50;99.90;;;;;;5054793;28;20035;-45
2022/11/06 04:34:19;;;;;;;8.68;3.85;;;24.50;99.90;;;;;;5054681;28;20100;-45
2022/11/06 04:36:54;;;;;;;4.57;3.15;;;24.50;99.90;;;;;;5054774;28;20025;-45
2022/11/06 04:39:43;;;;;;;4.60;2.97;;;24.40;99.90;;;;;;5054602;28;20021;-45
2022/11/06 04:42:14;;;;;;;5.13;3.28;;;24.50;99.90;;;;;;5054823;28;20029;-45
2022/11/06 04:44:49;;;;;;;7.35;4.35;;;24.50;99.90;;;;;;5054595;28;20021;-45
2022/11/06 04:47:18;;;;;;;5.63;3.42;;;24.40;99.90;;;;;;5054341;28;20029;-45
2022/11/06 04:49:44;;;;;;;6.00;3.20;;;24.40;99.90;;;;;;5054432;28;20081;-45
2022/11/06 04:52:17;;;;;;;4.20;3.15;;;24.40;99.90;;;;;;5054637;28;20499;-47
2022/11/06 04:54:45;;;;;;;5.93;3.08;;;24.40;99.90;;;;;;5054579;28;20388;-45
2022/11/06 04:57:10;;;;;;;;;;;24.40;99.90;;;;;;5054874;28;20083;-45
2022/11/06 04:59:36;;;;;;;4.13;3.00;;;24.40;99.90;;;;;;5073250;22;19920;-48
2022/11/06 05:02:04;;;;;;;5.22;3.28;;;24.40;99.90;;;;;;5095027;28;20032;-47
2022/11/06 05:04:30;;;;;;;4.15;3.17;;;24.40;99.90;;;;;;5094463;28;20024;-47
2022/11/06 05:06:56;;;;;;;5.38;3.50;;;24.40;99.90;;;;;;5094123;28;20043;-48
2022/11/06 05:09:22;;;;;;;5.53;3.00;;;24.40;99.90;;;;;;5094371;28;20020;-48
2022/11/06 05:11:48;;;;;;;7.05;3.70;;;24.40;99.90;;;;;;5075957;28;20039;-48
2022/11/06 05:14:13;;;;;;;6.68;3.38;;;24.30;99.90;;;;;;5094111;28;20535;-48
2022/11/06 05:16:39;;;;;;;6.70;3.55;;;24.40;99.90;;;;;;5094278;28;20077;-48
2022/11/06 05:19:05;;;;;;;5.38;3.58;;;24.30;99.90;;;;;;5094060;28;20055;-48
2022/11/06 05:24:15;;;;;;;5.47;3.45;;;24.40;99.90;;;;;;5093922;28;20085;-48
2022/11/06 05:26:41;;;;;;;5.55;3.30;;;24.30;99.90;;;;;;5094074;28;20036;-47
2022/11/06 05:29:07;;;;;;;6.03;2.95;;;24.30;99.90;;;;;;5093795;28;20020;-47
2022/11/06 05:31:33;;;;;;;4.43;3.22;;;24.30;99.90;;;;;;5093860;28;20107;-47
2022/11/06 05:33:58;;;;;;;4.93;3.08;;;24.30;99.90;;;;;;5093774;28;20436;-47
2022/11/06 05:36:24;;;;;;;5.25;3.03;;;24.30;99.90;;;;;;5093770;28;20032;-47
2022/11/06 05:38:50;;;;;;;5.93;3.45;;;24.30;99.90;;;;;;5093767;28;20024;-47
2022/11/06 05:41:16;;;;;;;5.30;3.00;;;24.30;99.90;;;;;;5093662;28;20032;-47
2022/11/06 05:43:41;;;;;;;4.00;2.67;;;24.30;99.90;;;;;;5093714;28;20490;-47
2022/11/06 05:46:08;;;;;;;4.60;3.20;;;24.30;99.90;;;;;;5093581;28;20479;-47
2022/11/06 05:48:33;;;;;;;5.03;3.45;;;24.30;99.90;;;;;;5074998;28;20034;-47
2022/11/06 05:51:02;;;;;;;4.38;3.28;;;24.30;99.90;;;;;;5093492;28;20442;-47
2022/11/06 05:53:29;;;;;;;4.30;2.40;;;24.30;99.90;;;;;;5093559;28;20024;-47
2022/11/06 05:55:55;;;;;;;5.28;3.13;;;24.30;99.90;;;;;;5093513;28;20069;-47
2022/11/06 05:58:21;;;;;;;5.68;2.88;;;24.30;99.90;;;;;;5093444;28;20446;-47
2022/11/06 06:00:47;;;;;;;5.28;3.10;;;24.30;99.90;;;;;;5093451;28;20480;-47
2022/11/06 06:03:13;;;;;;;5.50;3.50;;;24.30;99.90;;;;;;5093252;28;20032;-47
2022/11/06 06:05:39;;;;;;;5.90;2.72;;;24.30;99.90;;;;;;5093333;28;20093;-47
2022/11/06 06:08:05;;;;;;;3.63;2.58;;;24.30;99.90;;;;;;5093223;28;20113;-48
2022/11/06 06:10:31;;;;;;;5.13;2.63;;;24.30;99.90;;;;;;5093313;28;20757;-47
2022/11/06 06:12:57;;;;;;;3.20;2.65;;;24.30;99.90;;;;;;5093373;28;20032;-48
2022/11/06 06:15:23;;;;;;;4.10;2.58;;;24.30;99.90;;;;;;5058547;28;20449;-48
2022/11/06 06:17:49;;;;;;;2.95;2.28;;;24.30;99.90;;;;;;5093111;28;20387;-48
2022/11/06 06:20:14;;;;;;;4.82;2.90;;;24.30;99.90;;;;;;5093111;28;20024;-48
2022/11/06 06:22:40;;;;;;;3.70;2.67;;;24.20;99.90;;;;;;5093229;28;20460;-48
2022/11/06 06:25:06;;;;;;;8.45;3.03;;;24.20;99.90;;;;;;5093084;28;20024;-48
2022/11/06 06:27:32;;;;;;;5.22;2.92;;;24.20;99.90;;;;;;5092934;28;20036;-49
2022/11/06 06:29:58;;;;;;;8.70;2.90;;;24.20;99.90;;;;;;5093200;28;20028;-48
2022/11/06 06:32:24;;;;;;;3.97;2.30;;;24.20;99.90;;;;;;5093017;28;20046;-48
2022/11/06 06:34:50;;;;;;;3.63;2.72;;;24.20;99.90;;;;;;5093096;28;20024;-48
2022/11/06 06:37:16;;;;;;;3.40;2.45;;;24.20;99.90;;;;;;5093129;28;20027;-48
2022/11/06 06:39:41;;;;;;;3.08;2.13;;;24.20;99.90;;;;;;5093035;28;20024;-48
2022/11/06 06:42:07;;;;;;;3.30;2.60;;;24.20;99.90;;;;;;5093088;28;20365;-51
2022/11/06 06:44:33;;;;;;;4.05;2.85;;;24.20;99.90;;;;;;5093091;28;20054;-48
2022/11/06 06:46:58;;;;;;;3.92;2.40;;;24.20;99.90;;;;;;5092928;28;20090;-48
2022/11/06 06:49:24;;;;;;;5.72;2.72;;;24.20;99.90;;;;;;5092932;28;20492;-48
2022/11/06 06:51:50;;;;;;;3.95;2.50;;;24.20;99.90;;;;;;5092895;28;20384;-48
2022/11/06 06:54:16;;;;;;;5.15;2.75;;;24.20;99.90;;;;;;5074611;28;20060;-48
2022/11/06 06:56:41;;;;;;;3.42;2.63;;;24.20;99.90;;;;;;5092855;28;20027;-48
2022/11/06 06:59:07;;;;;;;4.30;2.40;;;24.20;99.90;;;;;;5092798;28;20024;-48
2022/11/06 07:01:33;;;;;;;3.35;2.50;;;24.20;99.90;;;;;;5076114;28;20044;-48
2022/11/06 07:03:59;;;;;;;4.32;2.40;;;24.20;99.90;;;;;;5096852;28;20031;-48
2022/11/06 07:06:25;;;;;;;3.33;2.40;;;24.20;99.90;;;;;;5096720;28;20094;-48
2022/11/06 07:08:55;;;;;;;3.20;2.38;;;24.20;99.90;;;;;;5096761;28;20027;-48
2022/11/06 07:11:21;;;;;;;5.53;2.50;;;24.20;99.90;;;;;;5096653;28;20016;-48
2022/11/06 07:13:47;;;;;;;4.15;2.10;;;24.20;99.90;;;;;;5096551;28;20020;-48
2022/11/06 07:16:12;;;;;;;3.95;2.00;;;24.20;99.90;;;;;;5096260;28;20433;-48
2022/11/06 07:18:39;;;;;;;5.05;2.80;;;24.20;99.90;;;;;;5096550;28;20020;-48
2022/11/06 07:21:10;;;;;;;4.28;2.38;;;24.20;99.90;;;;;;5096302;28;20431;-48
2022/11/06 07:23:37;;;;;;;5.07;2.60;;;24.20;99.90;;;;;;5078082;28;20039;-48
2022/11/06 07:26:04;;;;;;;3.25;2.60;;;24.20;99.90;;;;;;5096139;28;20440;-48
2022/11/06 07:28:30;;;;;;;4.43;2.28;;;24.30;99.90;;;;;;5096163;28;20395;-48
2022/11/06 07:31:01;;;;;;;3.55;2.70;;;24.30;99.90;;;;;;5096145;28;20031;-48
2022/11/06 07:33:27;;;;;;;4.00;2.47;;;24.30;99.90;;;;;;5095921;28;20069;-48
2022/11/06 07:35:54;;;;;;;5.60;2.85;;;24.30;99.90;;;;;;5096025;28;20024;-47
2022/11/06 07:38:19;;;;;;;4.88;2.75;;;24.30;99.90;;;;;;5095926;28;20027;-48
2022/11/06 07:40:45;;;;;;;3.05;2.15;;;24.30;99.90;;;;;;5077816;28;20024;-48
2022/11/06 07:43:12;;;;;;;3.60;2.45;;;24.40;99.90;;;;;;5095764;28;20035;-48
2022/11/06 07:45:38;;;;;;;4.15;2.63;;;24.40;99.90;;;;;;5077878;28;20016;-48
2022/11/06 07:48:05;;;;;;;4.20;2.50;;;24.40;99.90;;;;;;5095821;28;20055;-48
2022/11/06 07:50:31;;;;;;;3.97;2.30;;;24.50;99.90;;;;;;5095690;28;20020;-48
2022/11/06 07:52:57;;;;;;;3.47;2.47;;;24.50;99.90;;;;;;5095647;28;20111;-48
2022/11/06 07:55:23;;;;;;;5.13;2.70;;;24.50;99.90;;;;;;5095715;28;20100;-48
2022/11/06 07:57:49;;;;;;;3.63;2.22;;;24.50;99.90;;;;;;5095784;28;20024;-48
2022/11/06 08:00:15;;;;;;;2.60;1.90;;;24.60;99.90;;;;;;5095433;28;20040;-48
2022/11/06 08:02:41;;;;;;;3.22;2.17;;;24.60;99.90;;;;;;5095529;28;20033;-48
2022/11/06 08:05:07;;;;;;;4.38;2.20;;;24.60;99.90;;;;;;5095691;28;20364;-48
2022/11/06 08:07:33;;;;;;;5.18;2.55;;;24.70;99.90;;;;;;5095477;28;20028;-48
2022/11/06 08:09:59;;;;;;;6.45;2.65;;;24.70;99.90;;;;;;5095457;28;20024;-48
2022/11/06 08:12:25;;;;;;;4.93;2.60;;;24.70;99.90;;;;;;5095279;28;20032;-48
2022/11/06 08:14:50;;;;;;;5.25;2.75;;;24.80;99.90;;;;;;5095366;28;20016;-48
2022/11/06 08:17:16;;;;;;;4.30;3.05;;;24.80;99.90;;;;;;5095392;28;20027;-47
2022/11/06 08:19:42;;;;;;;4.20;2.38;;;24.80;99.90;;;;;;5077265;28;20074;-48
2022/11/06 08:22:08;;;;;;;4.28;2.60;;;24.90;99.90;;;;;;5095272;28;20059;-47
2022/11/06 08:24:34;;;;;;;4.50;2.80;;;24.90;99.90;;;;;;5095140;28;20107;-47
2022/11/06 08:27:01;;;;;;;4.60;2.47;;;24.90;99.90;;;;;;5095026;28;20081;-48
2022/11/06 08:29:27;;;;;;;3.75;2.50;;;25.00;99.90;;;;;;5095161;28;20050;-48
2022/11/06 08:31:53;;;;;;;3.05;2.30;;;25.00;99.90;;;;;;5095035;28;20064;-47
2022/11/06 08:34:19;;;;;;;4.32;2.65;;;25.00;99.90;;;;;;5095017;28;20472;-47
2022/11/06 08:36:45;;;;;;;3.60;2.58;;;25.00;99.90;;;;;;5094783;28;20020;-48
2022/11/06 08:39:14;;;;;;;3.67;2.65;;;25.10;99.90;;;;;;5094672;28;20379;-48
2022/11/06 08:41:40;;;;;;;4.30;2.53;;;25.10;99.90;;;;;;5094747;28;20365;-50
2022/11/06 08:44:06;;;;;;;3.15;2.25;;;25.20;99.90;;;;;;5094767;28;20376;-48
2022/11/06 08:46:32;;;;;;;4.15;2.63;;;25.20;99.90;;;;;;5094560;28;20532;-47
2022/11/06 08:48:58;;;;;;;3.70;2.50;;;25.20;99.90;;;;;;5094751;28;20059;-48
2022/11/06 08:51:23;;;;;;;6.05;4.05;;;25.30;99.90;;;;;;5094803;28;20025;-48
2022/11/06 08:53:49;;;;;;;2.90;2.38;;;25.30;99.90;;;;;;5076386;28;20023;-48
2022/11/06 08:56:16;;;;;;;4.55;2.70;;;25.30;99.90;;;;;;5094563;28;20031;-48
2022/11/06 08:58:42;;;;;;;5.00;2.45;;;25.40;99.90;;;;;;5094572;28;20060;-48
2022/11/06 09:01:08;;;;;;;3.15;2.47;;;25.40;99.90;;;;;;5076067;28;20484;-50
2022/11/06 09:03:33;;;;;;;4.10;2.80;;;25.50;99.90;;;;;;5076091;28;20091;-48
2022/11/06 09:05:59;;;;;;;4.00;2.53;;;25.50;99.90;;;;;;5094308;28;20024;-48
2022/11/06 09:08:25;;;;;;;4.30;2.63;;;25.50;99.90;;;;;;5094160;28;20056;-48
2022/11/06 09:10:51;;;;;;;4.93;2.72;;;25.60;99.90;;;;;;5094413;28;20020;-48
2022/11/06 09:13:18;;;;;;;5.85;3.28;;;25.60;99.90;;;;;;5094260;28;20097;-48
2022/11/06 09:15:44;;;;;;;4.75;2.90;;;25.60;99.90;;;;;;5093897;28;20028;-47
2022/11/06 09:18:10;;;;;;;4.22;2.55;;;25.70;99.90;;;;;;5094139;28;20101;-48
2022/11/06 09:20:36;;;;;;;3.63;2.80;;;25.70;99.90;;;;;;5094065;28;20091;-48
2022/11/06 09:23:04;;;;;;;4.22;3.00;;;25.70;99.90;;;;;;5075701;28;20052;-48
2022/11/06 09:25:30;;;;;;;4.22;2.70;;;25.80;99.90;;;;;;5093445;28;20425;-48
2022/11/06 09:27:56;;;;;;;5.57;2.67;;;25.80;99.90;;;;;;5093851;28;20043;-49
2022/11/06 09:30:23;;;;;;;7.60;2.70;;;25.80;99.90;;;;;;5093915;28;20099;-48
2022/11/06 09:32:54;;;;;;;3.05;2.72;;;25.90;99.90;;;;;;5093726;28;20034;-49
2022/11/06 09:35:22;;;;;;;5.60;3.35;;;25.90;99.90;;;;;;5093870;28;20016;-49
2022/11/06 09:37:48;;;;;;;4.47;2.90;;;26.00;99.90;;;;;;5093940;28;20020;-49
2022/11/06 09:40:31;;;;;;;4.63;2.95;;;26.00;99.90;;;;;;5075645;28;20027;-48
2022/11/06 09:43:32;;;;;;;5.13;3.65;;;26.00;99.90;;;;;;5093704;28;20023;-48
2022/11/06 09:46:16;;;;;;;5.10;3.70;;;26.10;99.90;;;;;;5069818;28;20040;-48
2022/11/06 09:48:46;;;;;;;5.43;4.60;;;26.10;99.90;;;;;;5093633;28;20031;-48
2022/11/06 09:51:23;;;;;;;6.88;4.63;;;26.20;99.90;;;;;;5093476;28;20024;-49
2022/11/06 09:54:05;;;;;;;6.60;4.47;;;26.20;99.90;;;;;;5093524;28;20059;-48
2022/11/06 09:56:36;;;;;;;7.53;4.53;;;26.30;99.90;;;;;;5093441;28;20043;-48
2022/11/06 09:59:13;;;;;;;6.72;4.95;;;26.30;99.90;;;;;;5093434;28;20028;-49
2022/11/06 10:01:46;;;;;;;8.27;5.70;;;26.40;99.90;;;;;;5093122;28;20492;-48
2022/11/06 10:04:27;;;;;;;6.97;4.95;;;26.40;99.90;;;;;;5093372;28;20081;-49
2022/11/06 10:06:53;;;;;;;7.47;5.43;;;26.40;99.90;;;;;;5093415;28;20126;-48
2022/11/06 10:09:19;;;;;;;6.97;5.70;;;26.50;99.90;;;;;;5093590;28;20502;-48
2022/11/06 10:12:19;;;;;;;7.00;6.00;;;26.50;99.90;;;;;;5093349;28;20076;-48
2022/11/06 10:14:57;;;;;;;9.80;6.32;;;26.60;99.90;;;;;;5093504;28;20095;-48
2022/11/06 10:18:08;;;;;;;8.80;7.20;;;26.70;99.90;;;;;;5074875;28;20415;-48
2022/11/06 10:20:45;;;;;;;8.43;6.05;;;26.70;99.90;;;;;;5068551;28;20036;-47
2022/11/06 10:23:46;;;;;;;10.43;6.45;;;26.70;99.90;;;;;;5093074;28;20028;-48
2022/11/06 10:26:18;;;;;;;8.57;6.45;;;26.80;99.90;;;;;;5082147;28;20040;-48
2022/11/06 10:29:08;;;;;;;13.80;6.63;;;26.80;99.90;;;;;;5075234;28;20019;-48
2022/11/06 10:31:41;;;;;;;13.05;8.75;;;26.70;99.90;;;;;;5093013;28;20081;-52
2022/11/06 10:34:20;;;;;;;14.88;10.75;;;26.50;99.90;;;;;;5093058;28;20012;-48
2022/11/06 10:36:53;;;;;;;11.32;6.75;;;26.20;99.90;;;;;;5094137;28;20024;-54
2022/11/06 10:39:27;;;;;;;16.42;10.30;;;26.10;99.90;;;;;;5088697;28;20053;-49
2022/11/06 10:42:04;;;;;;;11.32;6.28;;;25.90;99.90;;;;;;5097264;28;20503;-51
2022/11/06 10:44:38;;;;;;;11.05;8.15;;;25.90;99.90;;;;;;5095455;28;20032;-49
2022/11/06 10:47:20;;;;;;;18.58;13.18;;;25.80;99.90;;;;;;5096948;28;20040;-49
2022/11/06 10:49:52;;;;;;;19.83;11.20;;;25.80;99.90;;;;;;5097099;28;20020;-48
2022/11/06 10:52:32;;;;;;;16.95;9.45;;;25.80;99.90;;;;;;5077168;28;20476;-48
2022/11/06 10:55:32;;;;;;;13.57;9.60;;;25.90;99.90;;;;;;5096920;28;20025;-48
2022/11/06 10:58:18;;;;;;;14.38;8.93;;;25.90;99.90;;;;;;5096909;28;20035;-48
2022/11/06 11:00:44;;;;;;;15.02;9.30;;;26.10;99.90;;;;;;5096590;28;20388;-48
2022/11/06 11:03:35;;;;;;;12.00;9.15;;;26.20;99.90;;;;;;5096641;28;20035;-49
2022/11/06 11:06:03;;;;;;;13.07;9.15;;;26.40;99.90;;;;;;5096760;28;20046;-48
2022/11/06 11:08:33;;;;;;;18.02;9.23;;;26.50;99.90;;;;;;5096598;28;20028;-48
2022/11/06 11:11:01;;;;;;;13.27;8.77;;;26.60;99.90;;;;;;5096473;28;20024;-49
2022/11/06 11:13:27;;;;;;;18.05;9.13;;;26.70;99.90;;;;;;5096794;28;20024;-49
2022/11/06 11:15:53;;;;;;;13.55;9.18;;;26.80;99.90;;;;;;5096334;28;20041;-49
2022/11/06 11:18:30;;;;;;;10.25;8.00;;;26.90;99.90;;;;;;5096451;28;20016;-48
2022/11/06 11:21:05;;;;;;;17.00;9.98;;;27.00;99.90;;;;;;5096293;28;20529;-48
2022/11/06 11:23:31;;;;;;;14.00;9.25;;;27.10;99.90;;;;;;5096565;28;20032;-48
2022/11/06 11:26:15;;;;;;;12.00;9.48;;;27.20;99.90;;;;;;5096453;28;20080;-49
2022/11/06 11:28:41;;;;;;;12.80;9.13;;;27.20;99.90;;;;;;5096465;28;20025;-48
2022/11/06 11:31:13;;;;;;;14.45;8.85;;;27.30;99.90;;;;;;5096235;28;20046;-49
2022/11/06 11:33:40;;;;;;;12.82;9.98;;;27.40;99.90;;;;;;5096125;28;20024;-49
2022/11/06 11:36:07;;;;;;;;;;;27.40;99.90;;;;;;5096607;28;20466;-49
2022/11/06 11:38:43;;;;;;;7.55;4.60;;;27.50;99.90;;;;;;5096030;28;19911;-49
2022/11/06 11:41:13;;;;;;;5.25;4.55;;;27.40;99.90;;;;;;5095815;28;20380;-49
2022/11/06 11:43:41;;;;;;;8.73;4.97;;;27.30;99.90;;;;;;5095664;28;20098;-49
2022/11/06 11:46:07;;;;;;;8.23;4.93;;;27.00;99.90;;;;;;5095560;28;20380;-49
2022/11/06 11:48:44;;;;;;;10.57;6.05;;;26.70;99.90;;;;;;5090850;28;20028;-49
2022/11/06 11:51:29;;;;;;;8.65;4.60;;;26.40;99.90;;;;;;5095711;28;20123;-49
2022/11/06 11:54:20;;;;;;;10.50;7.15;;;26.20;99.90;;;;;;5095792;28;20031;-48
2022/11/06 11:56:55;;;;;;;7.18;3.60;;;26.00;99.90;;;;;;5095605;28;20032;-49
2022/11/06 11:59:37;;;;;;;6.53;4.57;;;25.80;99.90;;;;;;5086680;28;20027;-49
2022/11/06 12:02:26;;;;;;;8.52;6.60;;;25.70;99.90;;;;;;5090090;28;20024;-49
2022/11/06 12:05:08;;;;;;;10.13;5.53;;;25.60;99.90;;;;;;5086940;28;20063;-49
2022/11/06 12:07:40;;;;;;;6.30;3.92;;;25.50;99.90;;;;;;5087174;28;20101;-48
2022/11/06 12:10:27;;;;;;;5.55;3.97;;;25.40;99.90;;;;;;5073698;28;20027;-49
2022/11/06 12:12:54;;;;;;;7.72;4.70;;;25.40;99.90;;;;;;5075139;28;20040;-49
2022/11/06 12:15:25;;;;;;;10.32;3.25;;;25.40;99.90;;;;;;5075047;28;20066;-51
2022/11/06 12:17:59;;;;;;;10.38;4.68;;;25.30;99.90;;;;;;5076995;28;20024;-50
2022/11/06 12:20:53;;;;;;;9.77;4.88;;;25.30;99.90;;;;;;5088861;28;20023;-49
2022/11/06 12:23:24;;;;;;;6.18;4.85;;;25.20;99.90;;;;;;5095280;28;20021;-49
2022/11/06 12:26:03;;;;;;;9.50;3.92;;;25.20;99.90;;;;;;5090385;28;20028;-49
2022/11/06 12:28:33;;;;;;;5.80;4.00;;;25.20;99.90;;;;;;5095128;28;20073;-49
2022/11/06 12:31:05;;;;;;;14.23;5.00;;;25.20;99.90;;;;;;5095149;28;20028;-49
2022/11/06 12:33:32;;;;;;;10.23;5.20;;;25.20;99.90;;;;;;5093635;28;20020;-49
2022/11/06 12:36:06;;;;;;;7.80;4.25;;;25.20;99.90;;;;;;5093680;28;20024;-49
2022/11/06 12:38:47;;;;;;;7.82;4.13;;;25.20;99.90;;;;;;5094861;28;20036;-49
2022/11/06 12:41:25;;;;;;;7.63;3.40;;;25.30;99.90;;;;;;5093721;28;20473;-49
2022/11/06 12:43:52;;;;;;;5.68;4.10;;;25.30;99.90;;;;;;5094064;28;20031;-48
2022/11/06 12:46:23;;;;;;;9.45;5.43;;;25.40;99.90;;;;;;5093440;28;20056;-49
2022/11/06 12:48:54;;;;;;;6.00;3.30;;;25.60;99.90;;;;;;5094650;28;20024;-49
2022/11/06 12:51:47;;;;;;;7.22;3.97;;;25.70;99.90;;;;;;5092925;28;20020;-49
2022/11/06 12:54:32;;;;;;;7.30;3.72;;;25.70;99.90;;;;;;5083543;28;20060;-49
2022/11/06 12:57:12;;;;;;;5.45;3.10;;;25.90;99.90;;;;;;5072820;28;20025;-49
2022/11/06 13:00:12;;;;;;;9.27;4.20;;;25.90;99.90;;;;;;5077930;28;20040;-49
2022/11/06 13:03:02;;;;;;;6.47;3.78;;;26.00;99.90;;;;;;5089289;28;20024;-49
2022/11/06 13:05:46;;;;;;;8.23;4.22;;;26.20;99.90;;;;;;5076408;28;20501;-48
2022/11/06 13:08:44;;;;;;;6.03;4.25;;;26.30;99.90;;;;;;5094389;28;20039;-48
2022/11/06 13:11:38;;;;;;;7.10;4.72;;;26.40;99.90;;;;;;5070713;28;20058;-49
2022/11/06 13:14:27;;;;;;;6.25;4.47;;;26.50;99.90;;;;;;5061804;28;20473;-48
2022/11/06 13:17:02;;;;;;;19.63;7.88;;;26.60;99.90;;;;;;5094004;28;20082;-49
2022/11/06 13:20:00;;;;;;;8.30;5.60;;;26.60;99.90;;;;;;5092803;28;20016;-49
2022/11/06 13:22:36;;;;;;;14.25;6.72;;;26.70;99.90;;;;;;5094134;28;20055;-49
2022/11/06 13:25:11;;;;;;;11.77;5.40;;;26.80;99.90;;;;;;5075903;28;20419;-48